Time;durP1;ratioP1;P1;durP2;ratioP2;P2;SDS_P1;SDS_P2;PMS_P1;PMS_P2;Temp;Humidity;BMP_temperature;BMP_pressure;BME280_temperature;BME280_humidity;BME280_pressure;Samples;Min_cycle;Max_cycle;Signal;HPM_P1;HPM_P2
2023/03/17 00:01:36;;;;;;;1.93;1.40;;;9.70;95.50;;;;;;5069902;28;20508;-53
2023/03/17 00:04:02;;;;;;;5.90;2.10;;;9.80;95.60;;;;;;5069688;28;20079;-53
2023/03/17 00:06:30;;;;;;;3.23;1.83;;;9.80;95.50;;;;;;5069394;28;20032;-54
2023/03/17 00:08:57;;;;;;;3.33;1.63;;;9.90;95.60;;;;;;5069879;28;20074;-53
2023/03/17 00:11:24;;;;;;;3.93;1.80;;;9.80;95.50;;;;;;5069788;28;20485;-54
2023/03/17 00:13:50;;;;;;;4.07;1.60;;;9.80;95.50;;;;;;5070214;28;20078;-54
2023/03/17 00:16:17;;;;;;;4.70;1.70;;;9.80;95.60;;;;;;5073242;28;20024;-55
2023/03/17 00:18:44;;;;;;;3.00;1.43;;;9.80;95.70;;;;;;5073339;28;20032;-52
2023/03/17 00:21:15;;;;;;;3.23;1.40;;;9.70;95.80;;;;;;5073157;28;20127;-54
2023/03/17 00:23:44;;;;;;;4.57;1.60;;;9.80;95.60;;;;;;5073170;28;20067;-54
2023/03/17 00:26:11;;;;;;;4.80;1.52;;;9.80;95.80;;;;;;5086423;22;20056;-50
2023/03/17 00:28:38;;;;;;;3.73;1.47;;;9.80;95.80;;;;;;5072995;28;20059;-49
2023/03/17 00:31:28;;;;;;;3.87;1.83;;;9.80;96.00;;;;;;5073124;28;20028;-50
2023/03/17 00:33:54;;;;;;;4.07;1.83;;;9.80;96.10;;;;;;5072942;28;20362;-51
2023/03/17 00:36:26;;;;;;;4.20;1.70;;;9.70;95.90;;;;;;5082974;28;20039;-47
2023/03/17 00:38:54;;;;;;;6.07;1.57;;;9.70;95.90;;;;;;5093176;28;20456;-51
2023/03/17 00:41:21;;;;;;;4.87;1.70;;;9.80;95.90;;;;;;5093190;28;20107;-47
2023/03/17 00:43:47;;;;;;;4.30;1.67;;;9.80;96.00;;;;;;5093045;28;20051;-52
2023/03/17 00:46:16;;;;;;;4.97;2.20;;;9.70;96.00;;;;;;5093009;28;20028;-52
2023/03/17 00:48:43;;;;;;;3.97;1.55;;;9.70;96.10;;;;;;5093024;28;20020;-49
2023/03/17 00:51:11;;;;;;;4.47;1.53;;;9.70;96.20;;;;;;5075022;28;20028;-49
2023/03/17 00:53:37;;;;;;;4.93;1.60;;;9.70;96.20;;;;;;5093070;28;20032;-50
2023/03/17 00:56:03;;;;;;;5.13;1.60;;;9.70;96.30;;;;;;5093066;28;20028;-51
2023/03/17 00:58:33;;;;;;;5.67;1.77;;;9.60;96.40;;;;;;5074699;28;20036;-52
2023/03/17 01:00:59;;;;;;;2.67;1.50;;;9.60;96.50;;;;;;5093037;28;20028;-48
2023/03/17 01:03:26;;;;;;;3.00;1.50;;;9.60;96.50;;;;;;5092699;28;20081;-51
2023/03/17 01:05:58;;;;;;;6.03;1.77;;;9.50;96.60;;;;;;5074883;28;20121;-50
2023/03/17 01:08:24;;;;;;;3.97;1.77;;;9.50;96.70;;;;;;5092735;28;20024;-52
2023/03/17 01:10:51;;;;;;;5.10;1.60;;;9.60;96.60;;;;;;5092864;28;20038;-52
2023/03/17 01:13:18;;;;;;;3.53;1.50;;;9.60;96.60;;;;;;5074495;28;20032;-53
2023/03/17 01:15:46;;;;;;;3.47;1.67;;;9.60;96.60;;;;;;5074508;28;20480;-52
2023/03/17 01:18:14;;;;;;;4.57;1.80;;;9.60;96.60;;;;;;5074367;28;20035;-51
2023/03/17 01:20:41;;;;;;;4.53;1.50;;;9.50;96.90;;;;;;5092734;28;20134;-50
2023/03/17 01:23:08;;;;;;;3.37;1.60;;;9.60;96.60;;;;;;5092638;28;20276;-49
2023/03/17 01:25:36;;;;;;;2.97;1.50;;;9.50;96.60;;;;;;5072902;28;20046;-47
2023/03/17 01:28:02;;;;;;;4.60;1.50;;;9.60;96.70;;;;;;5092324;28;20047;-48
2023/03/17 01:30:36;;;;;;;3.67;1.70;;;9.60;96.50;;;;;;5074092;28;20073;-48
2023/03/17 01:33:02;;;;;;;3.40;1.40;;;9.50;96.50;;;;;;5092397;28;20092;-51
2023/03/17 01:35:29;;;;;;;3.27;1.50;;;9.60;96.50;;;;;;5092126;28;20028;-51
2023/03/17 01:37:56;;;;;;;2.67;1.30;;;9.60;96.50;;;;;;5091940;28;20136;-49
2023/03/17 01:40:27;;;;;;;5.17;1.73;;;9.60;96.40;;;;;;5091969;28;20028;-49
2023/03/17 01:43:01;;;;;;;5.30;1.60;;;9.50;96.40;;;;;;5092060;28;20027;-50
2023/03/17 01:46:05;;;;;;;3.73;1.47;;;9.60;96.30;;;;;;5091489;28;20172;-49
2023/03/17 01:48:36;;;;;;;4.40;1.73;;;9.60;96.10;;;;;;5073363;28;20039;-52
2023/03/17 01:51:05;;;;;;;4.73;1.70;;;9.50;96.10;;;;;;5073702;28;20152;-49
2023/03/17 01:53:33;;;;;;;3.35;1.50;;;9.60;96.10;;;;;;5091588;28;20085;-48
2023/03/17 01:56:00;;;;;;;3.53;1.70;;;9.60;96.10;;;;;;5091821;28;20028;-50
2023/03/17 01:58:26;;;;;;;5.90;1.60;;;9.60;96.10;;;;;;5073355;28;20089;-47
2023/03/17 02:00:54;;;;;;;4.17;1.63;;;9.60;96.00;;;;;;5073524;28;20070;-52
2023/03/17 02:03:21;;;;;;;5.57;1.83;;;9.60;96.50;;;;;;5091452;28;20057;-51
2023/03/17 02:05:50;;;;;;;4.77;1.60;;;9.50;96.10;;;;;;5073535;28;20028;-49
2023/03/17 02:08:16;;;;;;;4.07;1.70;;;9.60;95.90;;;;;;5073480;28;20032;-50
2023/03/17 02:10:44;;;;;;;5.83;1.70;;;9.60;96.00;;;;;;5091726;28;20028;-51
2023/03/17 02:13:13;;;;;;;5.32;1.92;;;9.60;96.00;;;;;;5091625;28;20051;-50
2023/03/17 02:15:40;;;;;;;2.47;1.30;;;9.60;96.10;;;;;;5091071;28;20036;-49
2023/03/17 02:18:07;;;;;;;2.37;1.40;;;9.60;96.40;;;;;;5091133;28;20485;-47
2023/03/17 02:20:35;;;;;;;4.25;1.20;;;9.50;96.10;;;;;;5091331;28;20344;-50
2023/03/17 02:23:02;;;;;;;2.63;1.33;;;9.60;96.10;;;;;;5073092;28;20031;-49
2023/03/17 02:25:32;;;;;;;3.47;1.50;;;9.60;96.20;;;;;;5090671;28;20035;-50
2023/03/17 02:28:15;;;;;;;2.97;1.67;;;9.50;96.30;;;;;;5091119;28;20102;-52
2023/03/17 02:30:42;;;;;;;4.97;1.67;;;9.50;96.70;;;;;;5072871;28;20127;-51
2023/03/17 02:33:08;;;;;;;5.63;1.63;;;9.50;96.40;;;;;;5091087;28;20077;-49
2023/03/17 02:35:34;;;;;;;2.07;1.23;;;9.40;96.50;;;;;;5090941;28;20382;-49
2023/03/17 02:38:00;;;;;;;3.57;1.47;;;9.40;96.70;;;;;;5091007;28;20058;-49
2023/03/17 02:40:28;;;;;;;5.93;1.57;;;9.40;96.50;;;;;;5072629;28;20036;-51
2023/03/17 02:42:54;;;;;;;4.20;1.60;;;9.40;96.50;;;;;;5090845;28;20081;-48
2023/03/17 02:45:20;;;;;;;5.67;1.50;;;9.30;96.50;;;;;;5072319;28;20058;-47
2023/03/17 02:47:48;;;;;;;3.77;1.23;;;9.30;96.60;;;;;;5072433;28;20115;-50
2023/03/17 02:50:20;;;;;;;3.37;1.40;;;9.30;96.70;;;;;;5090741;28;20020;-51
2023/03/17 02:52:45;;;;;;;2.47;1.53;;;9.30;96.70;;;;;;5090773;28;20028;-50
2023/03/17 02:55:11;;;;;;;5.43;1.70;;;9.30;96.80;;;;;;5090541;28;20031;-52
2023/03/17 02:57:37;;;;;;;3.93;1.40;;;9.30;96.70;;;;;;5090497;28;20107;-48
2023/03/17 03:00:03;;;;;;;2.73;1.50;;;9.20;96.60;;;;;;5090521;28;20032;-52
2023/03/17 03:02:29;;;;;;;4.10;1.40;;;9.20;96.80;;;;;;5090583;28;20028;-51
2023/03/17 03:04:55;;;;;;;4.03;1.60;;;9.30;96.70;;;;;;5090422;28;20472;-47
2023/03/17 03:07:21;;;;;;;2.90;1.33;;;9.30;96.70;;;;;;5090273;28;20024;-50
2023/03/17 03:09:47;;;;;;;3.10;1.50;;;9.20;96.70;;;;;;5090493;28;20025;-48
2023/03/17 03:12:13;;;;;;;4.57;1.40;;;9.20;96.70;;;;;;5090538;28;20412;-51
2023/03/17 03:14:39;;;;;;;3.57;1.40;;;9.20;97.10;;;;;;5090251;28;20553;-48
2023/03/17 03:17:05;;;;;;;4.00;1.40;;;9.20;96.70;;;;;;5090349;28;20111;-49
2023/03/17 03:19:31;;;;;;;3.33;1.40;;;9.20;96.70;;;;;;5090406;28;20111;-47
2023/03/17 03:21:57;;;;;;;3.90;1.57;;;9.20;96.70;;;;;;5090905;28;20066;-48
2023/03/17 03:24:23;;;;;;;2.87;1.43;;;9.20;96.60;;;;;;5090162;28;20565;-48
2023/03/17 03:26:49;;;;;;;3.93;1.70;;;9.20;96.60;;;;;;5089999;28;20483;-49
2023/03/17 03:29:15;;;;;;;4.23;1.73;;;9.20;96.60;;;;;;5090371;28;20028;-50
2023/03/17 03:31:41;;;;;;;3.03;1.57;;;9.20;96.60;;;;;;5090398;28;20039;-50
2023/03/17 03:34:07;;;;;;;3.63;1.20;;;9.20;96.60;;;;;;5090334;28;20032;-50
2023/03/17 03:36:33;;;;;;;4.00;1.77;;;9.20;96.60;;;;;;5090135;28;20422;-51
2023/03/17 03:38:59;;;;;;;3.93;1.90;;;9.20;96.80;;;;;;5090266;28;20381;-48
2023/03/17 03:41:26;;;;;;;3.43;1.40;;;9.10;96.80;;;;;;5090396;28;20024;-53
2023/03/17 03:43:51;;;;;;;2.50;1.40;;;9.20;96.70;;;;;;5090002;28;20035;-52
2023/03/17 03:46:17;;;;;;;4.33;1.47;;;9.10;96.80;;;;;;5090139;28;20483;-50
2023/03/17 03:48:43;;;;;;;5.00;1.70;;;9.10;96.60;;;;;;5090669;28;20038;-48
2023/03/17 03:51:08;;;;;;;4.60;1.60;;;9.10;96.70;;;;;;5094187;28;20046;-49
2023/03/17 03:53:34;;;;;;;4.80;1.70;;;9.10;96.70;;;;;;5093755;28;20476;-49
2023/03/17 03:56:00;;;;;;;4.03;1.50;;;9.10;96.70;;;;;;5093926;28;20461;-49
2023/03/17 03:58:26;;;;;;;3.20;1.60;;;9.10;96.70;;;;;;5093826;28;20092;-47
2023/03/17 04:00:52;;;;;;;5.50;1.97;;;9.10;96.80;;;;;;5094047;28;20161;-50
2023/03/17 04:03:18;;;;;;;3.10;1.40;;;9.10;97.00;;;;;;5093717;28;20031;-47
2023/03/17 04:05:43;;;;;;;4.47;1.30;;;9.00;96.90;;;;;;5093903;28;20032;-49
2023/03/17 04:08:10;;;;;;;4.70;1.67;;;9.00;96.90;;;;;;5093640;28;20029;-50
2023/03/17 04:10:36;;;;;;;3.17;1.27;;;9.00;97.00;;;;;;5093647;28;20432;-51
2023/03/17 04:13:01;;;;;;;8.97;2.03;;;9.00;97.00;;;;;;5093650;28;20491;-47
2023/03/17 04:15:27;;;;;;;3.47;1.87;;;9.00;97.00;;;;;;5093382;28;20031;-48
2023/03/17 04:17:56;;;;;;;4.33;1.57;;;9.00;97.10;;;;;;5093596;28;20031;-50
2023/03/17 04:20:22;;;;;;;3.22;1.60;;;8.90;97.10;;;;;;5093609;28;20043;-49
2023/03/17 04:22:48;;;;;;;4.97;2.43;;;9.00;97.10;;;;;;5093430;28;20028;-47
2023/03/17 04:25:14;;;;;;;4.33;1.60;;;9.00;97.10;;;;;;5093547;28;20119;-48
2023/03/17 04:27:41;;;;;;;5.20;1.83;;;9.00;97.10;;;;;;5092855;28;20031;-50
2023/03/17 04:30:12;;;;;;;3.43;1.53;;;9.00;97.40;;;;;;5093264;28;20617;-48
2023/03/17 04:32:38;;;;;;;5.10;1.90;;;9.00;97.00;;;;;;5093389;28;20036;-49
2023/03/17 04:35:05;;;;;;;3.07;1.40;;;9.00;97.00;;;;;;5093243;28;20082;-47
2023/03/17 04:37:31;;;;;;;5.00;1.80;;;9.00;97.10;;;;;;5092904;28;20451;-45
2023/03/17 04:39:56;;;;;;;5.17;1.93;;;9.00;97.20;;;;;;5093081;28;20032;-49
2023/03/17 04:42:22;;;;;;;4.13;1.57;;;9.00;97.10;;;;;;5093348;28;20046;-47
2023/03/17 04:44:48;;;;;;;3.10;1.63;;;9.00;97.10;;;;;;5093376;28;20101;-49
2023/03/17 04:47:14;;;;;;;4.23;1.90;;;9.00;97.00;;;;;;5092714;28;20107;-52
2023/03/17 04:49:40;;;;;;;3.93;1.60;;;9.00;97.10;;;;;;5092956;28;20379;-47
2023/03/17 04:52:05;;;;;;;4.80;1.80;;;9.00;97.10;;;;;;5093002;28;20262;-47
2023/03/17 04:54:31;;;;;;;4.93;1.63;;;9.10;96.90;;;;;;5092608;28;20020;-52
2023/03/17 04:56:57;;;;;;;4.60;1.67;;;9.00;96.90;;;;;;5092884;28;20032;-49
2023/03/17 04:59:22;;;;;;;3.43;1.40;;;9.00;97.00;;;;;;5092695;28;20031;-52
2023/03/17 05:01:48;;;;;;;4.13;1.90;;;9.10;96.90;;;;;;5092835;28;20082;-49
2023/03/17 05:04:14;;;;;;;4.43;2.00;;;9.10;96.80;;;;;;5092526;28;20054;-49
2023/03/17 05:06:40;;;;;;;3.10;1.57;;;9.10;96.90;;;;;;5092308;28;20058;-52
2023/03/17 05:09:06;;;;;;;2.93;1.60;;;9.10;97.00;;;;;;5092471;28;20028;-48
2023/03/17 05:11:31;;;;;;;4.83;2.07;;;9.00;96.90;;;;;;5092793;28;20521;-50
2023/03/17 05:13:57;;;;;;;8.33;1.80;;;9.10;97.00;;;;;;5092329;28;20028;-48
2023/03/17 05:16:23;;;;;;;5.10;1.77;;;9.00;97.00;;;;;;5092274;28;20032;-49
2023/03/17 05:18:48;;;;;;;5.90;1.77;;;9.00;97.10;;;;;;5074433;28;20032;-48
2023/03/17 05:21:15;;;;;;;3.23;1.80;;;9.00;97.10;;;;;;5092426;28;20028;-50
2023/03/17 05:23:40;;;;;;;3.93;1.77;;;9.00;97.10;;;;;;5091932;28;20110;-49
2023/03/17 05:26:06;;;;;;;3.63;1.90;;;9.00;97.20;;;;;;5092092;28;20120;-51
2023/03/17 05:28:32;;;;;;;4.37;1.80;;;9.00;97.10;;;;;;5091918;28;20110;-49
2023/03/17 05:30:58;;;;;;;2.97;1.57;;;9.00;97.10;;;;;;5074132;28;20065;-49
2023/03/17 05:33:25;;;;;;;4.30;1.63;;;9.00;97.10;;;;;;5091883;28;20028;-51
2023/03/17 05:35:51;;;;;;;4.93;2.23;;;9.00;97.20;;;;;;5091940;28;20074;-49
2023/03/17 05:38:17;;;;;;;5.87;1.83;;;9.00;97.10;;;;;;5091729;28;20039;-52
2023/03/17 05:40:43;;;;;;;5.60;2.60;;;9.00;97.20;;;;;;5091884;28;20089;-50
2023/03/17 05:43:09;;;;;;;6.00;2.90;;;9.00;97.20;;;;;;5092144;28;20085;-49
2023/03/17 05:45:34;;;;;;;3.70;1.73;;;9.00;97.40;;;;;;5091581;28;20465;-51
2023/03/17 05:48:00;;;;;;;4.50;1.87;;;9.00;97.00;;;;;;5091751;28;20358;-47
2023/03/17 05:50:26;;;;;;;3.03;1.67;;;9.00;97.00;;;;;;5091748;28;20038;-48
2023/03/17 05:52:52;;;;;;;4.27;1.83;;;9.00;97.10;;;;;;5091601;28;20051;-51
2023/03/17 05:55:18;;;;;;;3.70;1.87;;;9.00;97.10;;;;;;5091724;28;20039;-49
2023/03/17 05:57:44;;;;;;;4.27;1.60;;;9.00;97.40;;;;;;5091571;28;20036;-49
2023/03/17 06:00:12;;;;;;;4.73;1.77;;;9.00;97.10;;;;;;5091466;28;20547;-46
2023/03/17 06:02:38;;;;;;;5.97;1.80;;;9.00;97.10;;;;;;5091477;28;20036;-48
2023/03/17 06:05:07;;;;;;;6.30;1.80;;;8.90;97.40;;;;;;5091362;28;20043;-52
2023/03/17 06:07:33;;;;;;;4.97;1.92;;;9.00;97.10;;;;;;5091133;28;20082;-47
2023/03/17 06:09:59;;;;;;;5.70;1.80;;;9.00;97.10;;;;;;5091409;28;20025;-52
2023/03/17 06:12:25;;;;;;;4.10;1.90;;;9.00;97.00;;;;;;5090957;28;20358;-51
2023/03/17 06:14:51;;;;;;;5.77;1.60;;;9.00;97.10;;;;;;5091464;28;20444;-50
2023/03/17 06:17:17;;;;;;;4.00;1.80;;;9.00;97.10;;;;;;5091067;28;20027;-52
2023/03/17 06:19:42;;;;;;;4.90;1.60;;;9.10;97.00;;;;;;5091173;28;20028;-49
2023/03/17 06:22:08;;;;;;;4.47;2.10;;;9.10;96.90;;;;;;5091104;28;20484;-52
2023/03/17 06:24:34;;;;;;;4.27;1.73;;;9.10;96.90;;;;;;5090996;28;20023;-49
2023/03/17 06:27:01;;;;;;;3.40;1.80;;;9.20;96.80;;;;;;5090664;28;20043;-51
2023/03/17 06:29:28;;;;;;;5.40;1.83;;;9.30;96.60;;;;;;5091078;28;20081;-52
2023/03/17 06:31:53;;;;;;;4.20;1.83;;;9.30;96.70;;;;;;5090938;28;20077;-49
2023/03/17 06:34:21;;;;;;;4.40;2.00;;;9.30;96.60;;;;;;5090780;28;20388;-51
2023/03/17 06:36:48;;;;;;;5.43;2.07;;;9.40;96.50;;;;;;5090457;28;20055;-52
2023/03/17 06:39:14;;;;;;;5.37;2.10;;;9.50;96.50;;;;;;5090732;28;20039;-49
2023/03/17 06:41:40;;;;;;;3.87;1.80;;;9.50;96.30;;;;;;5091176;28;20464;-49
2023/03/17 06:44:07;;;;;;;4.67;1.93;;;9.50;96.50;;;;;;5090793;28;20119;-50
2023/03/17 06:46:34;;;;;;;4.57;1.87;;;9.60;96.30;;;;;;5090503;28;20131;-50
2023/03/17 06:49:00;;;;;;;3.33;1.40;;;9.80;96.00;;;;;;5090785;28;20024;-47
2023/03/17 06:51:26;;;;;;;6.50;1.60;;;9.80;95.70;;;;;;5090739;28;20032;-52
2023/03/17 06:53:52;;;;;;;5.90;1.87;;;9.80;95.70;;;;;;5090727;28;20111;-47
2023/03/17 06:56:18;;;;;;;5.90;1.60;;;9.90;95.50;;;;;;5090734;28;20068;-49
2023/03/17 06:58:45;;;;;;;3.27;1.70;;;9.90;95.50;;;;;;5090622;28;20086;-48
2023/03/17 07:01:13;;;;;;;4.87;1.80;;;10.00;95.50;;;;;;5090667;28;20056;-46
2023/03/17 07:03:39;;;;;;;5.83;1.93;;;10.00;95.20;;;;;;5090213;28;20510;-50
2023/03/17 07:06:05;;;;;;;4.43;1.93;;;10.10;95.30;;;;;;5090456;28;20031;-49
2023/03/17 07:08:32;;;;;;;16.10;8.07;;;10.30;95.00;;;;;;5090304;28;20028;-51
2023/03/17 07:10:58;;;;;;;5.60;2.10;;;10.50;95.10;;;;;;5090492;28;20161;-48
2023/03/17 07:13:24;;;;;;;6.57;3.70;;;10.70;94.60;;;;;;5090313;28;20500;-48
2023/03/17 07:15:50;;;;;;;4.93;1.83;;;10.80;94.40;;;;;;5090307;28;20028;-49
2023/03/17 07:18:17;;;;;;;5.40;1.90;;;10.90;94.20;;;;;;5090141;28;20028;-51
2023/03/17 07:20:43;;;;;;;10.30;2.00;;;11.00;94.00;;;;;;5090446;28;20024;-49
2023/03/17 07:23:20;;;;;;;6.03;1.70;;;11.00;93.70;;;;;;5090372;28;20384;-52
2023/03/17 07:25:46;;;;;;;5.53;2.20;;;11.20;93.60;;;;;;5094177;28;20032;-51
2023/03/17 07:28:12;;;;;;;4.83;1.80;;;11.20;93.50;;;;;;5094367;28;20058;-50
2023/03/17 07:30:39;;;;;;;3.73;1.60;;;11.30;93.40;;;;;;5094299;28;20031;-51
2023/03/17 07:33:05;;;;;;;2.77;1.23;;;11.40;93.20;;;;;;5094353;28;20473;-49
2023/03/17 07:35:32;;;;;;;5.57;1.67;;;11.40;93.10;;;;;;5094273;28;20043;-51
2023/03/17 07:37:58;;;;;;;4.27;1.60;;;11.50;93.10;;;;;;5094083;28;20035;-51
2023/03/17 07:40:24;;;;;;;6.40;1.80;;;11.80;92.80;;;;;;5094338;28;20066;-51
2023/03/17 07:42:50;;;;;;;4.60;2.07;;;12.00;92.30;;;;;;5094228;28;20032;-48
2023/03/17 07:45:16;;;;;;;5.33;1.80;;;12.10;92.20;;;;;;5093776;28;20054;-49
2023/03/17 07:47:42;;;;;;;5.67;2.07;;;12.10;92.10;;;;;;5094074;28;20385;-48
2023/03/17 07:50:08;;;;;;;4.77;1.93;;;12.20;92.00;;;;;;5093964;28;20039;-45
2023/03/17 07:52:34;;;;;;;6.23;2.10;;;12.20;92.00;;;;;;5094269;28;20434;-50
2023/03/17 07:55:00;;;;;;;5.17;1.60;;;12.20;91.80;;;;;;5093968;28;20025;-46
2023/03/17 07:57:26;;;;;;;6.90;1.93;;;12.20;91.80;;;;;;5093755;28;20039;-53
2023/03/17 07:59:51;;;;;;;6.13;1.80;;;12.10;92.20;;;;;;5093690;28;20496;-51
2023/03/17 08:02:18;;;;;;;4.27;1.70;;;12.20;91.90;;;;;;5093807;28;20027;-52
2023/03/17 08:04:44;;;;;;;4.43;1.70;;;12.20;91.90;;;;;;5093611;28;20042;-49
2023/03/17 08:07:11;;;;;;;6.23;2.60;;;12.30;91.80;;;;;;5093568;28;20107;-47
2023/03/17 08:09:37;;;;;;;6.30;1.97;;;12.30;92.10;;;;;;5093687;28;20028;-50
2023/03/17 08:12:04;;;;;;;4.00;1.70;;;12.30;92.10;;;;;;5093667;28;20408;-50
2023/03/17 08:14:30;;;;;;;3.20;1.60;;;12.50;91.70;;;;;;5093266;28;20035;-48
2023/03/17 08:16:56;;;;;;;6.87;1.50;;;12.40;91.70;;;;;;5093350;28;20055;-51
2023/03/17 08:19:23;;;;;;;5.63;1.60;;;12.30;91.70;;;;;;5093752;28;20561;-51
2023/03/17 08:21:49;;;;;;;4.37;1.53;;;12.20;91.90;;;;;;5093466;28;20028;-51
2023/03/17 08:24:16;;;;;;;5.40;1.93;;;12.30;91.80;;;;;;5093202;28;20043;-52
2023/03/17 08:26:42;;;;;;;4.00;2.00;;;12.20;91.90;;;;;;5092865;28;20028;-48
2023/03/17 08:29:08;;;;;;;7.23;2.23;;;12.40;91.90;;;;;;5093075;28;20028;-52
2023/03/17 08:31:35;;;;;;;4.20;1.70;;;12.70;91.60;;;;;;5093440;28;20499;-49
2023/03/17 08:34:01;;;;;;;5.90;1.90;;;12.80;91.10;;;;;;5093043;28;20112;-48
2023/03/17 08:36:28;;;;;;;5.23;1.60;;;12.70;91.20;;;;;;5092528;28;20032;-52
2023/03/17 08:38:54;;;;;;;12.73;3.67;;;12.70;91.20;;;;;;5093568;28;20043;-52
2023/03/17 08:41:22;;;;;;;5.93;2.20;;;12.60;91.60;;;;;;5093060;28;20032;-51
2023/03/17 08:43:49;;;;;;;3.60;1.88;;;12.60;91.60;;;;;;5092771;28;20127;-49
2023/03/17 08:46:24;;;;;;;6.10;2.00;;;12.50;91.60;;;;;;5092827;28;20039;-49
2023/03/17 08:48:51;;;;;;;5.37;2.03;;;12.60;91.40;;;;;;5092879;28;20369;-52
2023/03/17 08:51:19;;;;;;;7.27;2.13;;;12.70;91.40;;;;;;5092925;28;20559;-50
2023/03/17 08:53:45;;;;;;;4.85;1.90;;;12.80;91.20;;;;;;5092653;28;20032;-49
2023/03/17 08:56:11;;;;;;;5.67;1.77;;;13.00;90.80;;;;;;5092629;28;20472;-49
2023/03/17 08:58:41;;;;;;;7.57;1.88;;;13.20;90.70;;;;;;5092459;28;20118;-51
2023/03/17 09:01:09;;;;;;;4.40;1.80;;;13.20;90.60;;;;;;5092781;28;20123;-52
2023/03/17 09:03:37;;;;;;;4.50;2.43;;;13.10;90.60;;;;;;5092562;28;20028;-47
2023/03/17 09:06:05;;;;;;;5.13;1.70;;;13.20;90.40;;;;;;5092553;28;20032;-52
2023/03/17 09:08:33;;;;;;;7.13;1.93;;;13.40;90.40;;;;;;5092350;28;20036;-48
2023/03/17 09:11:00;;;;;;;4.00;1.73;;;13.50;90.10;;;;;;5092462;28;20508;-50
2023/03/17 09:13:26;;;;;;;6.50;1.80;;;13.80;90.00;;;;;;5092455;28;20024;-52
2023/03/17 09:15:52;;;;;;;3.67;1.75;;;13.80;89.80;;;;;;5092458;28;20032;-51
2023/03/17 09:18:18;;;;;;;3.50;1.65;;;13.90;89.40;;;;;;5092263;28;20039;-49
2023/03/17 09:20:44;;;;;;;6.55;2.35;;;14.00;88.70;;;;;;5092250;28;20039;-48
2023/03/17 09:23:10;;;;;;;4.90;1.83;;;14.10;89.80;;;;;;5092217;28;20024;-51
2023/03/17 09:25:37;;;;;;;3.53;1.60;;;14.40;87.70;;;;;;5092037;28;20111;-48
2023/03/17 09:28:06;;;;;;;4.65;1.70;;;14.60;86.60;;;;;;5092141;28;20032;-51
2023/03/17 09:30:32;;;;;;;3.17;1.90;;;14.60;87.00;;;;;;5092010;28;20031;-48
2023/03/17 09:32:57;;;;;;;4.75;1.98;;;14.90;86.10;;;;;;5092080;28;20032;-52
2023/03/17 09:35:24;;;;;;;5.07;1.80;;;15.10;85.00;;;;;;5091870;28;20038;-51
2023/03/17 09:37:50;;;;;;;3.05;1.50;;;15.20;84.40;;;;;;5091763;28;20036;-51
2023/03/17 09:40:19;;;;;;;6.82;1.70;;;15.40;83.80;;;;;;5091981;28;20028;-49
2023/03/17 09:43:15;;;;;;;6.03;2.20;;;15.20;84.30;;;;;;5091846;28;20504;-48
2023/03/17 09:45:42;;;;;;;6.75;2.40;;;15.50;84.30;;;;;;5091334;28;20024;-52
2023/03/17 09:48:30;;;;;;;5.78;2.13;;;15.90;82.90;;;;;;5090634;28;20032;-52
2023/03/17 09:50:57;;;;;;;8.10;2.22;;;16.20;82.30;;;;;;5091694;28;20460;-50
2023/03/17 09:53:33;;;;;;;4.15;1.88;;;17.10;80.50;;;;;;5091596;28;20020;-50
2023/03/17 09:56:21;;;;;;;4.00;1.70;;;17.60;77.40;;;;;;5091664;28;20050;-51
2023/03/17 09:58:53;;;;;;;7.50;2.15;;;18.30;75.00;;;;;;5091024;28;20062;-52
2023/03/17 10:01:19;;;;;;;5.03;1.80;;;18.60;73.30;;;;;;5091597;28;20024;-53
2023/03/17 10:03:46;;;;;;;4.88;1.50;;;18.90;71.30;;;;;;5091410;28;20454;-52
2023/03/17 10:06:28;;;;;;;3.00;1.83;;;19.00;70.80;;;;;;5073256;28;20556;-50
2023/03/17 10:09:09;;;;;;;8.00;1.75;;;19.10;69.70;;;;;;5091562;28;20089;-52
2023/03/17 10:11:45;;;;;;;8.85;1.92;;;18.90;69.00;;;;;;5091439;28;20028;-52
2023/03/17 10:14:37;;;;;;;4.75;1.92;;;18.70;68.90;;;;;;5091130;28;20122;-51
2023/03/17 10:17:16;;;;;;;4.85;2.15;;;18.30;69.40;;;;;;5091244;28;20036;-52
2023/03/17 10:19:49;;;;;;;4.47;1.90;;;18.10;71.50;;;;;;5091310;28;20563;-53
2023/03/17 10:22:33;;;;;;;5.88;2.03;;;18.70;69.60;;;;;;5091414;28;20032;-51
2023/03/17 10:25:17;;;;;;;7.30;2.00;;;19.50;67.60;;;;;;5091351;28;20036;-50
2023/03/17 10:27:54;;;;;;;5.95;1.80;;;20.30;65.20;;;;;;5090819;28;20047;-52
2023/03/17 10:30:22;;;;;;;5.63;1.95;;;20.50;63.70;;;;;;5091234;28;20522;-53
2023/03/17 10:32:51;;;;;;;6.50;2.20;;;20.50;64.70;;;;;;5091382;28;20043;-52
2023/03/17 10:35:17;;;;;;;;;;;20.60;64.30;;;;;;5091386;28;20445;-54
2023/03/17 10:37:46;;;;;;;6.55;1.90;;;21.20;62.10;;;;;;5090907;28;19908;-51
2023/03/17 10:40:27;;;;;;;4.75;2.00;;;21.50;61.30;;;;;;5090865;28;20067;-50
2023/03/17 10:43:06;;;;;;;6.93;2.17;;;21.00;61.80;;;;;;5091260;28;20451;-50
2023/03/17 10:45:40;;;;;;;4.78;2.03;;;21.00;61.20;;;;;;5090859;28;20036;-53
2023/03/17 10:48:09;;;;;;;6.63;2.10;;;21.00;61.20;;;;;;5090878;28;20044;-53
2023/03/17 10:50:38;;;;;;;5.38;1.77;;;21.20;61.00;;;;;;5090981;28;20032;-52
2023/03/17 10:53:18;;;;;;;5.65;1.98;;;21.00;60.80;;;;;;5090856;28;20032;-51
2023/03/17 10:55:51;;;;;;;4.43;1.70;;;21.10;61.00;;;;;;5090866;28;20127;-49
2023/03/17 10:58:23;;;;;;;4.35;2.00;;;20.90;60.00;;;;;;5090572;28;20109;-50
2023/03/17 11:00:59;;;;;;;7.35;2.17;;;20.60;61.20;;;;;;5090853;28;20116;-51
2023/03/17 11:03:34;;;;;;;6.35;3.08;;;20.00;62.60;;;;;;5090519;28;20043;-50
2023/03/17 11:06:03;;;;;;;6.13;2.38;;;19.70;63.40;;;;;;5090667;28;20028;-48
2023/03/17 11:08:35;;;;;;;8.23;3.78;;;19.40;64.60;;;;;;5090557;28;20024;-49
2023/03/17 11:11:09;;;;;;;6.18;1.95;;;19.50;64.30;;;;;;5091135;28;20423;-47
2023/03/17 11:13:35;;;;;;;6.55;2.17;;;19.40;63.90;;;;;;5090372;28;20042;-53
2023/03/17 11:16:22;;;;;;;5.78;1.90;;;19.40;63.70;;;;;;5090592;28;20215;-51
2023/03/17 11:18:52;;;;;;;4.10;1.80;;;19.00;64.30;;;;;;5090629;28;20028;-52
2023/03/17 11:21:23;;;;;;;7.07;2.28;;;18.70;65.20;;;;;;5090611;28;20126;-49
2023/03/17 11:24:07;;;;;;;4.95;1.90;;;19.00;65.40;;;;;;5090465;28;20119;-52
2023/03/17 11:26:50;;;;;;;6.63;1.88;;;19.00;65.10;;;;;;5090101;28;20480;-51
2023/03/17 11:29:31;;;;;;;5.35;1.67;;;19.10;65.80;;;;;;5090237;28;20028;-49
2023/03/17 11:31:57;;;;;;;8.43;2.25;;;19.20;65.40;;;;;;5090312;28;20093;-52
2023/03/17 11:34:35;;;;;;;5.30;1.77;;;19.50;65.50;;;;;;5090447;28;20024;-51
2023/03/17 11:37:11;;;;;;;4.47;1.70;;;19.90;63.40;;;;;;5090464;28;20118;-50
2023/03/17 11:40:01;;;;;;;6.07;1.98;;;20.20;62.50;;;;;;5090614;28;20121;-52
2023/03/17 11:42:56;;;;;;;6.43;2.08;;;20.20;62.10;;;;;;5090674;28;20480;-52
2023/03/17 11:45:41;;;;;;;4.25;2.05;;;20.20;62.70;;;;;;5090454;28;20043;-51
2023/03/17 11:48:49;;;;;;;5.22;2.22;;;20.30;63.00;;;;;;5090422;28;20036;-49
2023/03/17 11:51:48;;;;;;;7.03;1.83;;;20.40;62.10;;;;;;5090556;28;20024;-51
2023/03/17 11:54:34;;;;;;;9.60;4.20;;;20.30;62.10;;;;;;5090454;28;20035;-51
2023/03/17 11:57:04;;;;;;;5.07;1.85;;;20.30;61.80;;;;;;5090081;28;20028;-51
2023/03/17 11:59:33;;;;;;;2.90;1.50;;;20.20;62.90;;;;;;5090265;28;20040;-51
2023/03/17 12:02:13;;;;;;;4.60;1.92;;;20.10;62.20;;;;;;5090477;28;20062;-52
2023/03/17 12:05:03;;;;;;;4.22;1.73;;;20.10;62.30;;;;;;5090460;28;20043;-51
2023/03/17 12:07:40;;;;;;;4.97;1.75;;;19.70;62.90;;;;;;5090171;28;20127;-51
2023/03/17 12:10:21;;;;;;;5.68;1.65;;;20.30;63.00;;;;;;5091358;28;20413;-53
2023/03/17 12:12:59;;;;;;;6.32;2.25;;;20.50;62.70;;;;;;5094239;28;20111;-52
2023/03/17 12:15:31;;;;;;;7.82;4.22;;;20.80;61.30;;;;;;5093936;28;20050;-52
2023/03/17 12:18:02;;;;;;;7.85;2.38;;;20.90;61.70;;;;;;5093738;28;20080;-48
2023/03/17 12:20:47;;;;;;;6.22;2.40;;;20.70;61.10;;;;;;5093575;28;20031;-51
2023/03/17 12:23:19;;;;;;;7.60;2.15;;;20.20;62.50;;;;;;5093681;28;20472;-51
2023/03/17 12:25:56;;;;;;;5.40;2.28;;;20.10;62.80;;;;;;5108475;22;20123;-52
2023/03/17 12:28:29;;;;;;;4.43;2.28;;;20.00;63.10;;;;;;5051558;28;20045;-51
2023/03/17 12:31:04;;;;;;;3.53;1.50;;;19.90;63.40;;;;;;5052515;28;20028;-53
2023/03/17 12:33:37;;;;;;;4.32;1.63;;;19.40;64.80;;;;;;5053330;28;20037;-53
2023/03/17 12:36:04;;;;;;;4.28;1.88;;;19.40;64.20;;;;;;5057453;28;20029;-53
2023/03/17 12:38:48;;;;;;;9.88;4.38;;;19.10;64.80;;;;;;5073044;28;20033;-50
2023/03/17 12:41:41;;;;;;;5.75;2.45;;;19.10;64.70;;;;;;5073257;28;20043;-53
2023/03/17 12:44:38;;;;;;;4.55;2.25;;;19.10;64.80;;;;;;5072967;28;20044;-51
2023/03/17 12:47:41;;;;;;;6.30;1.90;;;18.90;65.40;;;;;;5054805;28;20032;-52
2023/03/17 12:50:22;;;;;;;6.53;2.17;;;18.90;66.40;;;;;;5072973;28;20115;-50
2023/03/17 12:52:56;;;;;;;6.18;2.55;;;18.80;66.70;;;;;;5073154;28;20089;-52
2023/03/17 12:55:25;;;;;;;4.95;2.28;;;18.90;66.30;;;;;;5072596;28;20025;-52
2023/03/17 12:58:35;;;;;;;4.97;2.15;;;18.90;66.30;;;;;;5072650;28;20085;-51
2023/03/17 13:01:16;;;;;;;6.72;2.25;;;18.70;66.60;;;;;;5063672;28;20121;-53
2023/03/17 13:04:03;;;;;;;6.82;2.30;;;18.50;66.70;;;;;;5072551;28;20047;-50
2023/03/17 13:06:37;;;;;;;4.97;2.30;;;18.50;66.90;;;;;;5072128;28;20047;-53